Time;durP1;ratioP1;P1;durP2;ratioP2;P2;SDS_P1;SDS_P2;PMS_P1;PMS_P2;Temp;Humidity;BMP_temperature;BMP_pressure;BME280_temperature;BME280_humidity;BME280_pressure;Samples;Min_cycle;Max_cycle;Signal;HPM_P1;HPM_P2
2023/05/11 00:01:58;;;;;;;36.92;18.10;;;;;;;11.96;100.00;101086.72;5063118;28;20028;-83
2023/05/11 00:04:23;;;;;;;32.80;17.13;;;;;;;11.89;100.00;101085.44;5041381;28;20374;-83
2023/05/11 00:06:53;;;;;;;34.67;18.48;;;;;;;11.88;100.00;101081.81;5059830;28;20055;-83
2023/05/11 00:09:19;;;;;;;35.25;18.90;;;;;;;11.87;100.00;101074.59;5061385;28;20024;-83
2023/05/11 00:11:45;;;;;;;33.80;18.35;;;;;;;11.99;100.00;101080.97;5050772;28;20039;-84
2023/05/11 00:14:10;;;;;;;35.85;18.15;;;;;;;11.92;100.00;101097.06;5075559;28;20024;-84
2023/05/11 00:16:36;;;;;;;41.60;19.65;;;;;;;11.89;100.00;101091.81;5061515;28;20073;-83
2023/05/11 00:19:02;;;;;;;40.00;20.25;;;;;;;11.98;100.00;101094.81;5055283;28;20029;-83
2023/05/11 00:21:27;;;;;;;34.53;18.80;;;;;;;11.87;100.00;101102.03;5098651;28;20126;-83
2023/05/11 00:23:53;;;;;;;38.92;19.67;;;;;;;11.85;100.00;101095.78;5078093;28;20038;-82
2023/05/11 00:26:18;;;;;;;40.67;19.52;;;;;;;11.92;100.00;101086.09;5097819;28;20020;-83
2023/05/11 00:28:44;;;;;;;35.85;18.92;;;;;;;12.01;100.00;101091.84;5074634;28;20403;-82
2023/05/11 00:31:09;;;;;;;37.63;18.85;;;;;;;11.97;100.00;101098.56;5044647;28;20040;-82
2023/05/11 00:33:35;;;;;;;41.13;18.40;;;;;;;12.00;100.00;101096.44;5047778;28;20048;-83
2023/05/11 00:36:02;;;;;;;35.30;19.35;;;;;;;11.98;100.00;101083.84;5077654;28;20080;-82
2023/05/11 00:38:27;;;;;;;39.60;20.20;;;;;;;12.05;100.00;101091.47;5057193;28;20032;-82
2023/05/11 00:40:53;;;;;;;34.30;18.50;;;;;;;12.02;100.00;101090.81;5057952;28;20040;-84
2023/05/11 00:43:18;;;;;;;37.90;19.73;;;;;;;12.07;100.00;101094.94;5046326;28;20028;-84
2023/05/11 00:45:46;;;;;;;40.78;19.08;;;;;;;11.95;100.00;101077.63;5078056;28;20032;-83
2023/05/11 00:48:13;;;;;;;41.15;20.92;;;;;;;11.95;100.00;101072.13;5054343;28;20122;-82
2023/05/11 00:50:38;;;;;;;41.97;20.55;;;;;;;11.94;100.00;101083.22;5094343;28;20074;-82
2023/05/11 00:53:04;;;;;;;41.25;19.27;;;;;;;11.94;100.00;101072.25;5095623;28;20170;-83
2023/05/11 00:55:30;;;;;;;43.97;21.98;;;;;;;12.05;100.00;101076.84;5061195;28;20081;-82
2023/05/11 00:57:58;;;;;;;39.78;20.02;;;;;;;11.85;100.00;101083.94;5094228;28;20386;-83
2023/05/11 01:00:24;;;;;;;41.78;20.52;;;;;;;11.85;100.00;101094.91;5077393;28;20043;-82
2023/05/11 01:02:52;;;;;;;42.75;20.70;;;;;;;11.89;100.00;101086.31;5077560;28;20032;-84
2023/05/11 01:05:18;;;;;;;44.15;21.63;;;;;;;11.85;100.00;101081.19;5094656;28;20040;-84
2023/05/11 01:08:04;;;;;;;44.97;20.63;;;;;;;11.79;100.00;101085.31;5078566;28;20035;-83
2023/05/11 01:10:40;;;;;;;44.67;21.45;;;;;;;11.84;100.00;101079.44;5058072;28;20123;-82
2023/05/11 01:13:25;;;;;;;46.92;20.70;;;;;;;11.87;100.00;101081.94;5074918;28;20056;-84
2023/05/11 01:15:55;;;;;;;42.33;22.27;;;;;;;11.76;100.00;101080.94;5094452;28;20099;-84
2023/05/11 01:18:40;;;;;;;49.90;22.98;;;;;;;11.84;100.00;101079.44;5095091;28;20027;-84
2023/05/11 01:21:08;;;;;;;44.28;22.13;;;;;;;11.75;100.00;101092.03;5071634;28;20035;-84
2023/05/11 01:24:01;;;;;;;56.30;23.45;;;;;;;11.81;100.00;101096.16;5063231;28;20020;-83
2023/05/11 01:26:56;;;;;;;49.60;22.92;;;;;;;11.89;100.00;101093.69;5108761;28;20040;-84
2023/05/11 01:29:59;;;;;;;49.85;22.23;;;;;;;11.92;100.00;101097.06;5067097;28;20042;-84
2023/05/11 01:32:31;;;;;;;53.38;22.10;;;;;;;11.90;100.00;101099.03;5099375;28;20343;-84
2023/05/11 01:35:06;;;;;;;50.67;25.77;;;;;;;11.97;100.00;101106.78;5110333;28;20032;-83
2023/05/11 01:37:33;;;;;;;50.30;24.58;;;;;;;11.89;100.00;101104.66;5115699;28;20358;-83
2023/05/11 01:40:05;;;;;;;54.05;24.00;;;;;;;11.93;100.00;101097.94;5080106;28;20470;-83
2023/05/11 01:42:54;;;;;;;57.85;25.35;;;;;;;11.94;100.00;101103.31;5116417;28;20019;-84
2023/05/11 01:45:22;;;;;;;52.83;24.10;;;;;;;11.92;100.00;101108.06;5102374;28;20133;-84
2023/05/11 01:47:52;;;;;;;56.13;24.38;;;;;;;11.86;100.00;101102.16;5096441;28;21743;-84
2023/05/11 01:50:20;;;;;;;57.30;25.23;;;;;;;11.93;100.00;101112.53;5063923;28;20028;-84
2023/05/11 01:52:48;;;;;;;53.63;24.73;;;;;;;11.94;100.00;101106.03;5115192;28;20040;-84
2023/05/11 01:55:16;;;;;;;59.22;25.23;;;;;;;11.94;100.00;101103.31;5065850;28;20031;-84
2023/05/11 01:57:44;;;;;;;60.08;25.98;;;;;;;12.03;100.00;101100.81;5077879;28;20019;-84
2023/05/11 02:00:10;;;;;;;57.70;26.77;;;;;;;12.07;100.00;101092.22;5088959;28;21706;-84
2023/05/11 02:02:36;;;;;;;58.22;26.58;;;;;;;12.13;100.00;101101.78;5077464;28;20028;-84
2023/05/11 02:05:04;;;;;;;63.05;26.48;;;;;;;12.14;100.00;101117.28;5063870;28;20402;-84
2023/05/11 02:07:31;;;;;;;56.72;26.23;;;;;;;11.99;100.00;101083.72;5097625;28;20432;-83
2023/05/11 02:09:58;;;;;;;58.90;26.13;;;;;;;12.13;100.00;101104.53;5096906;28;20393;-83
2023/05/11 02:12:25;;;;;;;60.00;25.90;;;;;;;11.96;100.00;101094.94;5080654;28;20122;-83
2023/05/11 02:14:52;;;;;;;52.65;26.08;;;;;;;11.94;100.00;101099.69;5104167;28;20038;-83
2023/05/11 02:17:21;;;;;;;55.60;26.23;;;;;;;11.94;100.00;101102.44;5099164;28;20036;-83
2023/05/11 02:19:48;;;;;;;58.00;26.45;;;;;;;11.98;100.00;101100.31;5079743;28;20428;-83
2023/05/11 02:22:14;;;;;;;61.88;26.52;;;;;;;11.91;100.00;101098.06;5100467;28;20096;-82
2023/05/11 02:24:41;;;;;;;61.30;27.17;;;;;;;11.95;100.00;101105.06;5075724;28;20028;-82
2023/05/11 02:27:07;;;;;;;61.00;25.83;;;;;;;11.94;100.00;101088.72;5106498;28;20039;-84
2023/05/11 02:29:32;;;;;;;62.63;27.55;;;;;;;11.97;100.00;101104.03;5079276;28;20453;-82
2023/05/11 02:32:07;;;;;;;60.65;27.55;;;;;;;11.90;100.00;101089.91;5079034;28;20433;-82
2023/05/11 02:34:46;;;;;;;56.25;27.23;;;;;;;11.92;100.00;101098.91;5102755;28;20034;-82
2023/05/11 02:37:16;;;;;;;57.83;27.42;;;;;;;11.81;100.00;101088.81;5102508;28;20066;-84
2023/05/11 02:39:49;;;;;;;61.28;27.25;;;;;;;11.73;100.00;101096.78;5059912;28;20032;-83
2023/05/11 02:42:19;;;;;;;56.42;27.65;;;;;;;11.75;100.00;101094.78;5117121;28;20059;-84
2023/05/11 02:44:54;;;;;;;79.07;29.88;;;;;;;11.88;100.00;101091.91;5097182;28;20035;-84
2023/05/11 02:47:21;;;;;;;62.13;27.23;;;;;;;11.91;100.00;101100.81;5097574;28;20024;-84
2023/05/11 02:49:52;;;;;;;67.90;28.25;;;;;;;11.74;100.00;101087.53;5092385;28;20106;-83
2023/05/11 02:52:21;;;;;;;72.70;28.25;;;;;;;11.69;100.00;101087.03;5103600;28;20081;-83
2023/05/11 02:54:50;;;;;;;73.60;30.27;;;;;;;11.63;100.00;101088.41;5084210;28;20039;-85
2023/05/11 02:57:17;;;;;;;70.93;28.85;;;;;;;11.72;100.00;101100.50;5077653;28;20023;-83
2023/05/11 02:59:44;;;;;;;73.35;28.52;;;;;;;11.69;100.00;101093.41;5101571;28;20051;-83
2023/05/11 03:02:13;;;;;;;69.38;29.42;;;;;;;11.70;100.00;101095.13;5100917;28;20156;-84
2023/05/11 03:04:38;;;;;;;69.00;29.25;;;;;;;11.63;100.00;101063.72;5066772;28;20046;-82
2023/05/11 03:07:05;;;;;;;69.55;28.30;;;;;;;11.84;100.00;101098.63;5080672;28;20024;-84
2023/05/11 03:09:31;;;;;;;72.72;27.95;;;;;;;11.75;100.00;101089.28;5083412;28;20474;-84
2023/05/11 03:11:58;;;;;;;67.72;28.13;;;;;;;11.71;100.00;101088.66;5079712;28;20127;-86
2023/05/11 03:14:24;;;;;;;72.07;28.60;;;;;;;11.76;100.00;101096.53;5073387;28;20040;-85
2023/05/11 03:16:51;;;;;;;68.68;29.52;;;;;;;11.74;100.00;101088.44;5080220;28;20035;-84
2023/05/11 03:19:17;;;;;;;63.92;29.02;;;;;;;11.84;100.00;101094.03;5100211;28;20110;-84
2023/05/11 03:21:42;;;;;;;73.85;30.25;;;;;;;11.99;100.00;101096.59;5097401;28;20119;-85
2023/05/11 03:24:09;;;;;;;76.00;29.90;;;;;;;11.95;100.00;101090.44;5075731;28;20027;-85
2023/05/11 03:26:35;;;;;;;72.55;28.25;;;;;;;11.86;100.00;101088.44;5083538;28;20035;-84
2023/05/11 03:29:02;;;;;;;60.60;27.52;;;;;;;11.90;100.00;101093.56;5106831;28;20044;-84
2023/05/11 03:31:28;;;;;;;61.97;29.33;;;;;;;11.81;100.00;101093.44;5066222;28;20051;-85
2023/05/11 03:33:53;;;;;;;72.82;30.55;;;;;;;11.76;100.00;101094.66;5084215;28;20489;-84
2023/05/11 03:36:21;;;;;;;69.65;29.08;;;;;;;11.68;100.00;101099.88;5063388;28;20470;-83
2023/05/11 03:38:48;;;;;;;79.90;30.85;;;;;;;11.74;100.00;101109.47;5082357;28;20037;-84
2023/05/11 03:41:16;;;;;;;70.07;28.02;;;;;;;11.72;100.00;101106.00;5082481;28;20029;-84
2023/05/11 03:43:46;;;;;;;73.63;30.80;;;;;;;11.64;100.00;101105.72;5082617;28;20114;-83
2023/05/11 03:46:13;;;;;;;82.32;29.73;;;;;;;11.49;100.00;101077.66;5079867;28;20028;-86
2023/05/11 03:48:40;;;;;;;80.63;30.92;;;;;;;11.81;100.00;101105.25;5074939;28;20040;-87
2023/05/11 03:51:07;;;;;;;69.78;29.90;;;;;;;11.75;100.00;101105.75;5100249;28;20107;-86
2023/05/11 03:53:33;;;;;;;75.95;30.02;;;;;;;11.56;100.00;101079.81;5073544;28;20032;-86
2023/05/11 03:55:58;;;;;;;71.80;29.80;;;;;;;11.66;100.00;101103.72;5050247;28;20039;-86
2023/05/11 03:58:24;;;;;;;75.82;29.65;;;;;;;11.59;100.00;101096.00;5068701;28;20383;-88
2023/05/11 04:00:50;;;;;;;78.30;29.75;;;;;;;11.65;100.00;101112.97;5070081;28;20059;-88
2023/05/11 04:03:15;;;;;;;66.82;27.95;;;;;;;11.57;100.00;101078.78;5088089;28;20038;-89
2023/05/11 04:05:41;;;;;;;71.35;29.27;;;;;;;11.59;100.00;101101.50;5084606;28;20092;-89
2023/05/11 04:08:07;;;;;;;73.15;30.58;;;;;;;11.61;100.00;101103.22;5085007;28;20023;-89
2023/05/11 04:10:32;;;;;;;73.30;29.95;;;;;;;11.58;100.00;101112.59;5100470;28;20040;-89
2023/05/11 04:12:58;;;;;;;73.40;29.08;;;;;;;11.50;100.00;101098.63;5051778;28;20028;-89
2023/05/11 04:15:23;;;;;;;81.50;29.70;;;;;;;11.63;100.00;101101.25;5086367;28;20390;-85
2023/05/11 04:17:52;;;;;;;76.13;30.88;;;;;;;11.71;100.00;101104.25;5100331;28;20042;-88
2023/05/11 04:20:17;;;;;;;75.03;29.63;;;;;;;11.69;100.00;101093.41;5100514;28;20037;-90
2023/05/11 04:22:43;;;;;;;81.50;30.70;;;;;;;11.70;100.00;101100.63;5067786;28;20023;-85
2023/05/11 04:25:08;;;;;;;81.13;30.40;;;;;;;11.73;100.00;101103.13;5078839;28;20027;-85
2023/05/11 04:27:34;;;;;;;72.55;28.67;;;;;;;11.64;100.00;101112.13;5079302;28;21672;-86
2023/05/11 04:30:00;;;;;;;72.35;29.60;;;;;;;11.65;100.00;101115.72;5063839;28;20139;-87
2023/05/11 04:32:27;;;;;;;77.07;29.80;;;;;;;11.61;100.00;101108.72;5098341;28;20474;-86
2023/05/11 04:34:52;;;;;;;70.65;28.02;;;;;;;11.67;100.00;101113.72;5079471;28;20397;-86
2023/05/11 04:37:18;;;;;;;65.72;28.02;;;;;;;11.71;100.00;101116.09;5054469;28;20036;-88
2023/05/11 04:39:43;;;;;;;76.18;29.38;;;;;;;11.56;100.00;101099.00;5094560;28;20079;-87
2023/05/11 04:42:09;;;;;;;76.78;30.10;;;;;;;11.66;100.00;101103.72;5058124;28;20032;-85
2023/05/11 04:44:35;;;;;;;75.07;30.50;;;;;;;11.67;100.00;101109.09;5075709;28;20056;-86
2023/05/11 04:47:03;;;;;;;76.95;28.90;;;;;;;11.67;100.00;101110.97;5092803;28;20398;-88
2023/05/11 04:49:29;;;;;;;80.47;30.40;;;;;;;11.66;100.00;101118.34;5085477;28;20059;-88
2023/05/11 04:51:54;;;;;;;77.32;29.98;;;;;;;11.72;100.00;101131.56;5082056;28;20121;-86
2023/05/11 04:54:20;;;;;;;77.22;29.80;;;;;;;11.65;100.00;101105.63;5078068;28;20032;-84
2023/05/11 04:56:45;;;;;;;71.57;29.10;;;;;;;11.74;100.00;101123.19;5025338;28;20109;-85
2023/05/11 04:59:11;;;;;;;72.82;28.58;;;;;;;11.70;100.00;101117.09;5090748;28;20043;-85
2023/05/11 05:01:36;;;;;;;72.03;28.75;;;;;;;11.71;100.00;101128.94;5079582;28;20052;-85
2023/05/11 05:04:02;;;;;;;73.63;29.35;;;;;;;11.78;100.00;101128.31;5062210;28;20035;-85
2023/05/11 05:06:27;;;;;;;78.05;30.33;;;;;;;11.95;100.00;101138.00;5079270;28;20040;-85
2023/05/11 05:08:53;;;;;;;83.13;31.13;;;;;;;12.01;100.00;101139.34;5059700;28;20079;-85
2023/05/11 05:11:18;;;;;;;83.57;31.02;;;;;;;11.94;100.00;101143.59;5080398;28;20040;-84
2023/05/11 05:13:44;;;;;;;77.35;30.17;;;;;;;11.94;100.00;101140.84;5098947;28;20036;-85
2023/05/11 05:16:09;;;;;;;89.68;31.80;;;;;;;11.86;100.00;101144.16;5064559;28;20032;-85
2023/05/11 05:18:35;;;;;;;93.97;33.38;;;;;;;11.87;100.00;101134.06;5062032;28;20028;-84
2023/05/11 05:21:01;;;;;;;97.13;33.58;;;;;;;12.01;100.00;101146.72;5088254;28;20032;-84
2023/05/11 05:23:26;;;;;;;94.93;33.75;;;;;;;11.86;100.00;101149.66;5078124;28;20475;-84
2023/05/11 05:25:52;;;;;;;101.82;33.65;;;;;;;11.89;100.00;101138.44;5067431;28;20032;-83
2023/05/11 05:28:18;;;;;;;104.60;34.70;;;;;;;11.89;100.00;101130.22;5062822;28;20116;-84
2023/05/11 05:30:44;;;;;;;128.00;35.90;;;;;;;11.98;100.00;101145.09;5055624;28;20039;-83
2023/05/11 05:33:12;;;;;;;106.53;36.38;;;;;;;11.91;100.00;101128.25;5086813;28;20039;-84
2023/05/11 05:35:38;;;;;;;102.60;33.65;;;;;;;12.02;100.00;101143.84;5073607;28;20418;-84
2023/05/11 05:38:03;;;;;;;105.47;35.63;;;;;;;12.10;100.00;101146.84;5075778;28;20028;-83
2023/05/11 05:40:29;;;;;;;106.57;34.85;;;;;;;12.01;100.00;101147.59;5064730;28;20459;-85
2023/05/11 05:42:55;;;;;;;119.35;36.95;;;;;;;12.16;100.00;101152.84;5053240;28;20035;-83
2023/05/11 05:45:20;;;;;;;108.82;38.20;;;;;;;12.17;100.00;101130.75;5061862;28;20081;-83
2023/05/11 05:47:47;;;;;;;123.88;38.53;;;;;;;12.37;100.00;101147.47;5061735;28;20047;-85
2023/05/11 05:50:13;;;;;;;108.15;37.90;;;;;;;12.43;100.00;101146.94;5041573;28;20028;-84
2023/05/11 05:52:38;;;;;;;116.22;36.58;;;;;;;12.47;100.00;101156.69;5062065;28;20036;-85
2023/05/11 05:55:04;;;;;;;110.35;37.80;;;;;;;12.37;100.00;101152.97;5061696;28;20055;-84
2023/05/11 05:57:30;;;;;;;114.53;37.47;;;;;;;12.51;100.00;101163.69;5079489;28;20039;-83
2023/05/11 05:59:55;;;;;;;106.85;36.63;;;;;;;12.51;100.00;101160.94;5079585;28;20061;-82
2023/05/11 06:02:21;;;;;;;104.40;38.45;;;;;;;12.73;100.00;101172.91;5071369;28;20028;-83
2023/05/11 06:04:46;;;;;;;99.93;36.83;;;;;;;12.67;100.00;101166.91;5077959;28;20028;-83
2023/05/11 06:07:13;;;;;;;102.82;37.00;;;;;;;12.76;100.00;101168.00;5061486;28;20077;-84
2023/05/11 06:09:39;;;;;;;95.80;36.45;;;;;;;12.65;100.00;101174.38;5078412;28;20537;-84
2023/05/11 06:12:05;;;;;;;88.10;33.67;;;;;;;12.66;100.00;101170.66;5081855;28;20555;-84
2023/05/11 06:14:31;;;;;;;86.55;33.00;;;;;;;12.69;100.00;101167.66;5040018;28;20032;-82
2023/05/11 06:16:56;;;;;;;94.13;34.95;;;;;;;12.65;100.00;101176.28;5056942;28;20024;-81
2023/05/11 06:19:22;;;;;;;92.60;34.33;;;;;;;12.83;100.00;101191.22;5048604;28;20033;-82
2023/05/11 06:21:47;;;;;;;105.90;38.28;;;;;;;12.69;100.00;101186.88;5057928;28;20436;-83
2023/05/11 06:24:13;;;;;;;88.68;35.13;;;;;;;12.61;100.00;101189.41;5042540;28;20040;-82
2023/05/11 06:26:39;;;;;;;89.93;35.35;;;;;;;12.61;100.00;101188.50;5074002;28;20025;-83
2023/05/11 06:29:06;;;;;;;90.57;36.92;;;;;;;12.62;100.00;101185.63;5045147;28;20406;-84
2023/05/11 06:31:32;;;;;;;92.43;35.00;;;;;;;12.73;100.00;101178.41;5056156;28;20043;-84
2023/05/11 06:33:58;;;;;;;88.53;33.20;;;;;;;12.68;100.00;101193.38;5072569;28;20495;-85
2023/05/11 06:36:24;;;;;;;100.78;35.83;;;;;;;12.85;100.00;101180.09;5043066;28;20115;-86
2023/05/11 06:38:49;;;;;;;87.90;35.25;;;;;;;12.90;100.00;101197.06;5059200;28;20032;-86
2023/05/11 06:41:15;;;;;;;82.93;33.75;;;;;;;12.80;100.00;101187.84;5074688;28;20037;-87
2023/05/11 06:43:41;;;;;;;84.57;33.33;;;;;;;12.82;100.00;101194.09;5056795;28;20024;-80
2023/05/11 06:46:06;;;;;;;92.82;31.50;;;;;;;12.74;100.00;101171.88;5039508;28;20044;-82
2023/05/11 06:48:32;;;;;;;76.55;30.25;;;;;;;12.78;100.00;101196.22;5072887;28;20068;-81
2023/05/11 06:50:57;;;;;;;69.53;29.80;;;;;;;12.79;100.00;101188.84;5038470;28;20067;-85
2023/05/11 06:53:23;;;;;;;72.25;28.85;;;;;;;12.82;100.00;101180.34;5073929;28;20102;-84
2023/05/11 06:55:49;;;;;;;69.22;29.02;;;;;;;13.00;100.00;101199.94;5074770;28;20078;-83
2023/05/11 06:58:15;;;;;;;69.00;29.88;;;;;;;13.03;100.00;101189.53;5061965;28;20037;-83
2023/05/11 07:00:41;;;;;;;72.97;30.33;;;;;;;13.12;100.00;101193.41;5073297;28;20402;-84
2023/05/11 07:03:06;;;;;;;70.68;30.23;;;;;;;13.19;100.00;101186.38;5057044;28;20031;-84
2023/05/11 07:05:32;;;;;;;71.13;29.33;;;;;;;13.34;100.00;101197.09;5056354;28;20068;-81
2023/05/11 07:07:57;;;;;;;71.22;28.48;;;;;;;13.37;100.00;101213.34;5068839;28;20116;-84
2023/05/11 07:10:23;;;;;;;67.70;27.65;;;;;;;13.32;100.00;101202.75;5076746;28;20119;-82
2023/05/11 07:12:49;;;;;;;63.30;26.98;;;;;;;13.37;100.00;101196.84;5076501;28;20032;-82
2023/05/11 07:15:14;;;;;;;71.68;27.83;;;;;;;13.24;100.00;101189.59;5051758;28;20099;-84
2023/05/11 07:17:40;;;;;;;73.80;30.15;;;;;;;13.41;100.00;101201.06;5072610;28;20036;-81
2023/05/11 07:20:06;;;;;;;64.75;29.35;;;;;;;13.33;100.00;101189.84;5038836;28;20445;-81
2023/05/11 07:22:32;;;;;;;66.75;27.30;;;;;;;13.13;100.00;101191.53;5055614;28;20029;-81
2023/05/11 07:24:59;;;;;;;71.80;29.77;;;;;;;13.04;100.00;101185.78;5039688;28;20086;-81
2023/05/11 07:27:25;;;;;;;67.45;28.88;;;;;;;13.19;100.00;101199.25;5055551;28;20127;-81
2023/05/11 07:29:51;;;;;;;70.57;29.52;;;;;;;13.15;100.00;101206.00;5083224;28;20131;-81
2023/05/11 07:32:16;;;;;;;61.33;29.63;;;;;;;13.38;100.00;101207.72;5064673;28;20031;-81
2023/05/11 07:34:43;;;;;;;59.28;28.60;;;;;;;13.26;100.00;101205.09;5065700;28;20394;-81
2023/05/11 07:37:08;;;;;;;68.60;30.77;;;;;;;13.30;100.00;101210.22;5099973;28;20073;-81
2023/05/11 07:39:34;;;;;;;70.10;29.30;;;;;;;13.27;100.00;101204.13;5065467;28;20445;-82
2023/05/11 07:41:59;;;;;;;76.03;30.98;;;;;;;13.28;100.00;101211.34;5048858;28;20043;-80
2023/05/11 07:44:25;;;;;;;72.35;32.45;;;;;;;13.24;100.00;101208.00;5081034;28;20133;-81
2023/05/11 07:46:51;;;;;;;75.55;30.52;;;;;;;13.26;100.00;101211.47;5078713;27;20074;-81
2023/05/11 07:49:16;;;;;;;70.28;31.45;;;;;;;13.55;100.00;101205.41;5081536;28;20471;-82
2023/05/11 07:51:42;;;;;;;68.80;32.08;;;;;;;13.57;100.00;101207.00;5094826;28;20039;-81
2023/05/11 07:54:07;;;;;;;71.85;30.08;;;;;;;13.30;100.00;101215.72;5081986;28;20367;-81
2023/05/11 07:56:33;;;;;;;72.75;31.15;;;;;;;13.35;100.00;101218.97;5099111;28;20096;-81
2023/05/11 07:58:58;;;;;;;72.63;32.53;;;;;;;13.46;100.00;101209.78;5065446;28;20031;-80
2023/05/11 08:01:24;;;;;;;80.40;32.00;;;;;;;13.48;100.00;101210.56;5083900;28;20028;-81
2023/05/11 08:03:49;;;;;;;64.90;29.52;;;;;;;13.42;100.00;101203.69;5065473;28;20032;-81
2023/05/11 08:06:15;;;;;;;65.35;29.60;;;;;;;13.58;100.00;101225.25;5099083;28;20028;-81
2023/05/11 08:08:40;;;;;;;68.80;31.00;;;;;;;13.69;100.00;101215.19;5117382;28;20027;-80
2023/05/11 08:11:06;;;;;;;68.10;30.58;;;;;;;13.68;100.00;101214.34;5064183;28;20088;-80
2023/05/11 08:13:31;;;;;;;68.55;29.33;;;;;;;13.82;100.00;101215.00;5115588;28;20027;-80
2023/05/11 08:15:57;;;;;;;77.85;31.25;;;;;;;14.07;100.00;101217.38;5081522;28;20031;-81
2023/05/11 08:18:22;;;;;;;74.88;32.78;;;;;;;14.29;100.00;101221.81;5082021;28;20095;-81
2023/05/11 08:20:48;;;;;;;73.40;30.00;;;;;;;14.46;100.00;101224.94;5070721;28;20036;-81
2023/05/11 08:23:17;;;;;;;71.25;30.50;;;;;;;14.60;100.00;101229.28;5064514;28;20032;-81
2023/05/11 08:25:50;;;;;;;72.65;31.55;;;;;;;14.79;100.00;101217.44;5061427;28;20514;-80
2023/05/11 08:28:17;;;;;;;70.63;30.20;;;;;;;14.71;100.00;101229.16;5061248;28;20035;-81
2023/05/11 08:30:43;;;;;;;78.30;32.83;;;;;;;14.93;100.00;101227.22;5065883;28;20060;-80
2023/05/11 08:33:08;;;;;;;73.00;31.20;;;;;;;15.03;100.00;101222.59;5024699;28;20131;-80
2023/05/11 08:35:34;;;;;;;74.32;30.83;;;;;;;15.28;100.00;101215.66;5041221;28;20044;-81
2023/05/11 08:37:59;;;;;;;71.65;31.05;;;;;;;15.31;100.00;101228.28;5057497;28;20043;-80
2023/05/11 08:40:27;;;;;;;73.60;32.60;;;;;;;15.25;100.00;101227.00;5063083;28;20024;-81
2023/05/11 08:42:55;;;;;;;77.05;30.60;;;;;;;15.59;100.00;101212.75;5058481;28;20470;-80
2023/05/11 08:45:21;;;;;;;79.35;31.95;;;;;;;15.35;100.00;101213.22;5040945;28;20471;-81
2023/05/11 08:47:47;;;;;;;82.20;33.00;;;;;;;15.37;100.00;101223.06;5074510;28;20093;-80
2023/05/11 08:50:13;;;;;;;84.05;34.17;;;;;;;15.23;100.00;101218.84;5078767;28;20020;-81
2023/05/11 08:52:39;;;;;;;82.47;34.55;;;;;;;15.41;100.00;101221.78;5077526;28;20520;-80
2023/05/11 08:55:06;;;;;;;78.07;35.42;;;;;;;15.51;100.00;101216.28;5077363;28;20032;-80
2023/05/11 08:57:33;;;;;;;86.22;35.53;;;;;;;15.43;100.00;101229.91;5044943;28;20032;-80
2023/05/11 09:00:00;;;;;;;92.32;36.67;;;;;;;15.38;100.00;101226.69;5041764;28;20033;-81
2023/05/11 09:02:27;;;;;;;82.05;35.35;;;;;;;15.27;100.00;101213.06;5077133;28;20165;-81
2023/05/11 09:04:53;;;;;;;88.82;35.80;;;;;;;15.17;100.00;101224.94;5077506;28;20024;-82
2023/05/11 09:07:20;;;;;;;89.43;37.22;;;;;;;14.95;100.00;101230.69;5094597;28;20406;-80
2023/05/11 09:09:46;;;;;;;89.30;36.05;;;;;;;14.87;100.00;101226.75;5076410;28;20470;-82
2023/05/11 09:12:12;;;;;;;96.10;37.03;;;;;;;14.71;100.00;101231.94;5076318;28;20036;-81
2023/05/11 09:14:38;;;;;;;109.15;41.30;;;;;;;14.46;100.00;101220.34;5056739;28;20029;-81
2023/05/11 09:17:05;;;;;;;114.13;42.65;;;;;;;14.43;100.00;101241.75;5051371;28;20040;-80
2023/05/11 09:19:30;;;;;;;117.07;44.13;;;;;;;14.20;100.00;101241.94;5076401;28;20071;-80
2023/05/11 09:21:58;;;;;;;139.82;47.72;;;;;;;14.00;100.00;101231.78;5041926;28;20028;-83
2023/05/11 09:24:23;;;;;;;132.93;45.92;;;;;;;14.00;100.00;101229.91;5079179;28;20455;-80
2023/05/11 09:27:05;;;;;;;152.57;50.10;;;;;;;14.06;100.00;101234.88;5056443;28;20064;-80
2023/05/11 09:29:31;;;;;;;133.15;47.55;;;;;;;13.92;100.00;101233.34;5039305;28;20049;-80
2023/05/11 09:31:56;;;;;;;147.93;49.67;;;;;;;14.11;100.00;101246.34;5027275;28;20050;-80
2023/05/11 09:34:22;;;;;;;160.18;51.53;;;;;;;14.01;100.00;101230.81;5058824;28;20036;-80
2023/05/11 09:36:55;;;;;;;146.55;48.95;;;;;;;14.01;100.00;101241.81;5059618;28;20047;-80
2023/05/11 09:39:35;;;;;;;150.95;49.65;;;;;;;14.19;100.00;101242.06;5042672;28;20070;-81
2023/05/11 09:42:17;;;;;;;134.82;47.08;;;;;;;13.91;100.00;101239.84;5075789;28;20036;-80
2023/05/11 09:44:44;;;;;;;139.07;48.13;;;;;;;14.05;100.00;101232.25;5058768;28;20036;-79
2023/05/11 09:47:21;;;;;;;133.50;45.85;;;;;;;14.05;100.00;101233.16;5076035;28;20555;-81
2023/05/11 09:49:47;;;;;;;130.13;44.95;;;;;;;14.26;100.00;101240.50;5058825;28;20470;-82
2023/05/11 09:52:17;;;;;;;130.05;44.40;;;;;;;14.46;100.00;101236.88;5058030;28;20031;-80
2023/05/11 09:54:43;;;;;;;133.02;45.20;;;;;;;14.59;100.00;101246.78;5091830;28;20040;-80
2023/05/11 09:57:22;;;;;;;138.52;46.53;;;;;;;14.57;100.00;101246.91;5064480;28;20036;-80
2023/05/11 09:59:47;;;;;;;145.35;45.60;;;;;;;14.64;100.00;101236.22;5055458;28;20086;-80
2023/05/11 10:02:16;;;;;;;137.52;47.00;;;;;;;14.69;100.00;101242.19;5043925;28;20032;-80
2023/05/11 10:04:42;;;;;;;121.65;44.70;;;;;;;14.81;100.00;101238.34;5054554;28;20033;-81
2023/05/11 10:07:07;;;;;;;136.93;45.33;;;;;;;14.94;100.00;101226.19;5061794;28;20046;-80
2023/05/11 10:09:33;;;;;;;129.38;44.28;;;;;;;14.78;100.00;101238.63;5055341;28;20036;-80
2023/05/11 10:12:01;;;;;;;131.00;43.85;;;;;;;14.69;100.00;101243.09;5041910;28;20470;-79
2023/05/11 10:14:30;;;;;;;132.32;45.85;;;;;;;14.88;100.00;101235.91;5092977;28;20081;-80
2023/05/11 10:16:57;;;;;;;136.30;46.53;;;;;;;15.09;100.00;101234.94;5057767;28;20028;-80
2023/05/11 10:19:22;;;;;;;134.57;45.00;;;;;;;14.95;100.00;101236.19;5081226;28;20055;-80
2023/05/11 10:21:50;;;;;;;122.30;43.35;;;;;;;14.96;100.00;101236.06;5039078;28;20033;-80
2023/05/11 10:24:16;;;;;;;127.38;45.33;;;;;;;15.21;100.00;101233.78;5055834;28;20029;-80
2023/05/11 10:26:42;;;;;;;120.45;43.05;;;;;;;15.09;100.00;101230.28;5041262;28;20111;-80
2023/05/11 10:29:08;;;;;;;109.20;41.85;;;;;;;15.37;100.00;101236.88;5059590;28;20048;-80
2023/05/11 10:31:35;;;;;;;110.60;40.97;;;;;;;15.52;100.00;101233.69;5095751;28;20134;-80
2023/05/11 10:34:03;;;;;;;102.43;37.22;;;;;;;15.34;100.00;101242.66;5095981;28;20486;-80
2023/05/11 10:36:29;;;;;;;97.40;35.95;;;;;;;15.26;100.00;101239.75;5094955;28;20047;-80
2023/05/11 10:38:54;;;;;;;103.20;37.22;;;;;;;15.39;100.00;101245.88;5061507;28;20484;-80
2023/05/11 10:41:25;;;;;;;83.78;33.60;;;;;;;15.49;100.00;101239.50;5079536;28;20118;-80
2023/05/11 10:44:10;;;;;;;85.80;34.13;;;;;;;15.36;100.00;101245.28;5078653;28;20027;-80
2023/05/11 10:46:58;;;;;;;81.32;32.72;;;;;;;15.96;100.00;101229.47;5078474;28;20039;-81
2023/05/11 10:49:48;;;;;;;78.43;33.55;;;;;;;16.97;100.00;101230.75;5095104;28;20038;-80
2023/05/11 10:52:43;;;;;;;74.30;29.50;;;;;;;17.14;100.00;101226.31;5112238;28;20126;-80
2023/05/11 10:55:27;;;;;;;76.15;31.35;;;;;;;17.62;100.00;101228.69;5095376;28;20477;-80
2023/05/11 10:57:58;;;;;;;81.13;29.23;;;;;;;17.29;100.00;101227.50;5111548;28;20039;-80
2023/05/11 11:00:46;;;;;;;81.03;28.73;;;;;;;16.95;100.00;101233.69;5095900;28;20044;-80
2023/05/11 11:03:13;;;;;;;71.25;28.52;;;;;;;16.96;100.00;101218.84;5075244;28;20106;-81